createdAt,value
2022-09-26T00:02:50.060Z,5.43
2022-09-26T00:07:55.342Z,3.70
2022-09-26T00:13:01.193Z,4.82
2022-09-26T00:18:05.175Z,4.65
2022-09-26T00:23:09.951Z,3.88
2022-09-26T00:28:16.704Z,4.20
2022-09-26T00:33:22.619Z,4.85
2022-09-26T00:38:28.797Z,4.85
2022-09-26T00:43:34.653Z,5.05
2022-09-26T00:48:39.437Z,6.40
2022-09-26T00:53:48.973Z,3.78
2022-09-26T00:58:56.264Z,2.90
2022-09-26T01:04:09.111Z,6.85
2022-09-26T01:09:23.486Z,6.45
2022-09-26T01:14:33.540Z,4.25
2022-09-26T01:19:40.594Z,7.25
2022-09-26T01:24:53.134Z,5.20
2022-09-26T01:30:13.422Z,6.60
2022-09-26T01:35:20.344Z,5.70
2022-09-26T01:40:27.130Z,7.13
2022-09-26T01:45:39.625Z,4.05
2022-09-26T01:50:46.993Z,6.15
2022-09-26T01:55:55.466Z,6.07
2022-09-26T02:01:10.717Z,9.05
2022-09-26T02:06:18.780Z,3.33
2022-09-26T02:11:25.641Z,8.48
2022-09-26T02:16:34.604Z,2.78
2022-09-26T02:21:41.049Z,7.93
2022-09-26T02:26:45.466Z,7.00
2022-09-26T02:31:53.665Z,7.70
2022-09-26T02:37:01.377Z,7.28
2022-09-26T02:42:12.157Z,8.10
2022-09-26T02:47:33.576Z,3.63
2022-09-26T02:52:46.066Z,7.28
2022-09-26T02:57:57.657Z,6.50
2022-09-26T03:03:04.607Z,4.95
2022-09-26T03:08:12.320Z,9.48
2022-09-26T03:13:16.396Z,6.97
2022-09-26T03:18:24.842Z,9.60
2022-09-26T03:23:30.482Z,10.23
2022-09-26T03:28:38.015Z,7.35
2022-09-26T03:33:51.491Z,10.65
2022-09-26T03:39:00.619Z,11.20
2022-09-26T03:44:04.744Z,10.00
2022-09-26T03:49:08.912Z,9.75
2022-09-26T03:54:16.265Z,12.32
2022-09-26T03:59:19.780Z,4.57
2022-09-26T04:04:23.423Z,10.88
2022-09-26T04:09:29.059Z,12.95
2022-09-26T04:14:33.693Z,15.23
2022-09-26T04:19:38.070Z,10.60
2022-09-26T04:24:45.269Z,13.00
2022-09-26T04:29:49.130Z,14.38
2022-09-26T04:34:55.270Z,12.38
2022-09-26T04:40:01.594Z,14.20
2022-09-26T04:45:06.364Z,14.05
2022-09-26T04:50:10.208Z,11.93
2022-09-26T04:55:17.663Z,14.32
2022-09-26T05:00:25.281Z,15.15
2022-09-26T05:05:29.225Z,8.48
2022-09-26T05:15:41.956Z,10.70
2022-09-26T05:20:48.664Z,9.45
2022-09-26T05:26:09.284Z,7.45
2022-09-26T05:31:14.907Z,8.77
2022-09-26T05:36:19.918Z,7.38
2022-09-26T05:41:25.528Z,11.07
2022-09-26T05:46:32.500Z,6.97
2022-09-26T05:51:41.834Z,12.63
2022-09-26T05:56:45.883Z,12.30
2022-09-26T06:06:58.287Z,13.90
2022-09-26T06:12:08.723Z,13.52
2022-09-26T06:17:12.799Z,13.10
2022-09-26T06:22:20.973Z,14.20
2022-09-26T06:27:25.867Z,15.40
2022-09-26T06:32:29.951Z,14.32
2022-09-26T06:37:38.791Z,14.85
2022-09-26T06:42:44.226Z,14.05
2022-09-26T06:47:49.201Z,12.35
2022-09-26T06:53:03.896Z,16.23
2022-09-26T06:58:09.539Z,15.02
2022-09-26T07:03:15.607Z,13.10
2022-09-26T07:09:00.984Z,13.85
2022-09-26T07:14:02.120Z,13.13
2022-09-26T07:19:06.478Z,14.00
2022-09-26T07:24:14.739Z,13.65
2022-09-26T07:29:20.083Z,12.77
2022-09-26T07:34:25.894Z,13.25
2022-09-26T07:39:38.589Z,11.38
2022-09-26T07:50:14.690Z,6.65
2022-09-26T07:55:24.003Z,12.40
2022-09-26T08:00:33.606Z,14.00
2022-09-26T08:05:37.470Z,9.45
2022-09-26T08:10:45.305Z,8.93
2022-09-26T08:15:51.036Z,7.63
2022-09-26T08:20:56.839Z,7.43
2022-09-26T08:26:14.055Z,7.25
2022-09-26T08:31:17.693Z,7.90
2022-09-26T08:36:25.526Z,6.82
2022-09-26T08:41:40.779Z,6.30
2022-09-26T08:46:57.597Z,5.60
2022-09-26T08:52:02.092Z,7.60
2022-09-26T08:57:23.553Z,4.97
2022-09-26T09:02:31.294Z,5.57
2022-09-26T09:07:38.152Z,6.15
2022-09-26T09:12:51.366Z,7.25
2022-09-26T09:18:03.572Z,4.95
2022-09-26T09:23:15.599Z,5.13
2022-09-26T09:28:31.090Z,4.13
2022-09-26T09:33:40.166Z,4.45
2022-09-26T09:38:48.088Z,3.33
2022-09-26T09:43:56.721Z,3.25
2022-09-26T09:49:08.608Z,3.55
2022-09-26T09:54:24.293Z,3.65
2022-09-26T09:59:42.758Z,3.85
2022-09-26T10:04:49.523Z,3.95
2022-09-26T10:09:54.699Z,5.57
2022-09-26T10:15:06.837Z,3.08
2022-09-26T10:20:38.767Z,2.95
2022-09-26T10:25:47.613Z,2.50
2022-09-26T10:31:05.148Z,2.30
2022-09-26T10:36:15.397Z,2.53
2022-09-26T10:41:24.041Z,3.90
2022-09-26T10:46:30.211Z,4.88
2022-09-26T10:51:39.528Z,2.92
2022-09-26T10:56:49.162Z,3.03
2022-09-26T11:01:57.960Z,6.22
2022-09-26T11:07:09.689Z,4.22
2022-09-26T11:12:25.384Z,4.25
2022-09-26T11:17:51.573Z,4.55
2022-09-26T11:23:03.411Z,4.50
2022-09-26T11:28:17.265Z,3.80
2022-09-26T11:33:21.498Z,3.67
2022-09-26T11:38:38.914Z,4.43
2022-09-26T11:43:57.879Z,4.60
2022-09-26T11:49:23.210Z,4.18
2022-09-26T11:54:36.055Z,2.25
2022-09-26T12:00:01.930Z,2.53
2022-09-26T12:05:26.767Z,2.58
2022-09-26T12:10:39.744Z,2.42
2022-09-26T12:15:53.784Z,3.80
2022-09-26T12:21:06.516Z,3.53
2022-09-26T12:26:18.064Z,2.77
2022-09-26T12:31:27.804Z,3.35
2022-09-26T12:36:48.088Z,3.97
2022-09-26T12:42:02.111Z,2.95
2022-09-26T12:47:14.993Z,2.88
2022-09-26T12:52:28.165Z,5.97
2022-09-26T12:57:45.477Z,3.80
2022-09-26T13:03:07.167Z,2.95
2022-09-26T13:08:16.061Z,2.67
2022-09-26T13:13:41.861Z,2.60
2022-09-26T13:19:00.516Z,2.25
2022-09-26T13:24:21.358Z,3.00
2022-09-26T13:29:30.400Z,3.35
2022-09-26T13:34:44.561Z,4.10
2022-09-26T13:39:51.516Z,2.40
2022-09-26T13:45:02.707Z,2.20
2022-09-26T13:50:16.110Z,2.25
2022-09-26T13:55:23.025Z,2.03
2022-09-26T14:00:57.756Z,2.17
2022-09-26T14:06:16.857Z,2.42
2022-09-26T14:11:30.688Z,3.55
2022-09-26T14:16:36.028Z,2.97
2022-09-26T14:21:44.774Z,1.60
2022-09-26T14:27:00.324Z,1.50
2022-09-26T14:32:05.994Z,3.10
2022-09-26T14:37:25.110Z,2.78
2022-09-26T14:42:32.886Z,1.17
2022-09-26T14:47:42.789Z,2.22
2022-09-26T14:52:53.117Z,3.10
2022-09-26T14:58:12.899Z,3.20
2022-09-26T15:03:23.562Z,2.30
2022-09-26T15:08:31.111Z,2.30
2022-09-26T15:13:38.665Z,2.67
2022-09-26T15:18:50.808Z,2.78
2022-09-26T15:23:58.936Z,3.90
2022-09-26T15:29:06.705Z,1.80
2022-09-26T15:34:18.341Z,1.73
2022-09-26T15:39:47.523Z,3.22
2022-09-26T15:45:29.770Z,1.70
2022-09-26T15:50:50.645Z,1.85
2022-09-26T15:55:57.149Z,1.83
2022-09-26T16:01:12.601Z,1.20
2022-09-26T16:06:32.162Z,2.38
2022-09-26T16:11:48.297Z,4.15
2022-09-26T16:17:03.762Z,4.97
2022-09-26T16:22:27.023Z,2.35
2022-09-26T16:27:35.338Z,2.42
2022-09-26T16:32:40.736Z,4.82
2022-09-26T16:37:44.423Z,1.45
2022-09-26T16:42:53.969Z,2.55
2022-09-26T16:47:58.136Z,6.22
2022-09-26T16:53:06.537Z,5.22
2022-09-26T16:58:18.407Z,4.93
2022-09-26T17:03:25.383Z,3.67
2022-09-26T17:08:32.160Z,7.60
2022-09-26T17:13:40.815Z,4.70
2022-09-26T17:18:46.516Z,4.70
2022-09-26T17:24:03.630Z,6.15
2022-09-26T17:29:19.165Z,6.65
2022-09-26T17:34:27.810Z,5.30
2022-09-26T17:39:31.472Z,4.97
2022-09-26T17:49:59.647Z,3.45
2022-09-26T17:55:27.266Z,2.65
2022-09-26T18:00:33.433Z,2.60
2022-09-26T18:05:38.756Z,4.53
2022-09-26T18:10:49.352Z,3.00
2022-09-26T18:15:58.091Z,3.45
2022-09-26T18:21:06.421Z,4.18
2022-09-26T18:26:15.383Z,3.17
2022-09-26T18:31:28.635Z,2.90
2022-09-26T18:36:39.561Z,2.72
2022-09-26T18:41:50.553Z,4.57
2022-09-26T18:47:04.862Z,3.22
2022-09-26T18:52:30.662Z,4.00
2022-09-26T18:58:00.692Z,2.70
2022-09-26T19:03:12.230Z,2.08
2022-09-26T19:08:28.518Z,5.07
2022-09-26T19:13:40.945Z,5.50
2022-09-26T19:18:52.961Z,3.67
2022-09-26T19:24:04.162Z,2.55
2022-09-26T19:29:15.324Z,1.90
2022-09-26T19:39:40.190Z,4.00
2022-09-26T19:44:51.930Z,3.75
2022-09-26T19:49:55.569Z,2.95
2022-09-26T19:55:01.585Z,5.78
2022-09-26T20:00:20.381Z,4.75
2022-09-26T20:05:34.738Z,7.85
2022-09-26T20:10:40.621Z,5.10
2022-09-26T20:15:49.366Z,4.80
2022-09-26T20:20:55.964Z,3.38
2022-09-26T20:26:00.375Z,2.80
2022-09-26T20:36:26.792Z,3.87
2022-09-26T20:41:36.171Z,2.80
2022-09-26T20:46:42.015Z,3.67
2022-09-26T20:51:49.311Z,3.67
2022-09-26T20:56:56.990Z,2.92
2022-09-26T21:02:03.070Z,4.35
2022-09-26T21:07:13.846Z,4.53
2022-09-26T21:12:26.238Z,4.82
2022-09-26T21:17:29.846Z,2.08
2022-09-26T21:22:37.318Z,5.28
2022-09-26T21:27:41.171Z,2.97
2022-09-26T21:32:46.840Z,2.63
2022-09-26T21:37:56.820Z,3.60
2022-09-26T21:43:04.371Z,3.65
2022-09-26T21:48:20.128Z,2.67
2022-09-26T21:53:36.671Z,2.63
2022-09-26T21:58:46.670Z,4.00
2022-09-26T22:04:03.468Z,4.13
2022-09-26T22:09:16.443Z,1.95
2022-09-26T22:14:27.425Z,2.00
2022-09-26T22:19:37.248Z,4.40
2022-09-26T22:24:47.847Z,1.10
2022-09-26T22:29:58.124Z,3.38
2022-09-26T22:35:10.421Z,3.17
2022-09-26T22:40:26.373Z,1.10
2022-09-26T22:45:30.318Z,2.03
2022-09-26T22:50:34.714Z,1.92
2022-09-26T22:55:52.706Z,2.22
2022-09-26T23:00:57.890Z,1.38
2022-09-26T23:06:12.673Z,2.20
2022-09-26T23:11:19.565Z,2.20
2022-09-26T23:16:24.069Z,1.38
2022-09-26T23:21:35.562Z,2.75
2022-09-26T23:26:42.612Z,1.85
2022-09-26T23:31:48.207Z,2.05
2022-09-26T23:36:51.964Z,0.95
2022-09-26T23:42:03.824Z,2.15
2022-09-26T23:47:07.177Z,1.60
2022-09-26T23:52:12.939Z,3.58
2022-09-26T23:57:25.365Z,1.95
